KWWR/WWR METAR and TAF weather

Enter ICAO airport designator
Station Type Date Time Source
KWWR METAR 2019/12/07 17:35 UTC NOAA

KWWR 071735Z AUTO 20011G17KT 10SM CLR 11/01 A3023 RMK AO2


Station Type Date Time Source
KWWR Decoded METAR 2019/12/07 17:35 UTC NOAA

Woodward, West Woodward Airport, OK, United States (KWWR) 36-26-12N 099-31-16W 667M
Dec 07, 2019 - 12:35 PM EST / 2019.12.07 1735 UTC
Wind: from the SSW (200 degrees) at 13 MPH (11 KT) gusting to 20 MPH (17 KT):0
Visibility: 10 mile(s):0
Sky conditions: clear
Temperature: 51 F (11 C)
Dew Point: 33 F (1 C)
Relative Humidity: 50%
Pressure (altimeter): 30.23 in. Hg (1023 hPa)
ob: KWWR 071735Z AUTO 20011G17KT 10SM CLR 11/01 A3023 RMK AO2
cycle: 17

Station Type Date Time Source
KWWR TAF 2019/12/07 18:40 UTC NOAA

TAF KWWR 071738Z 0718/0818 19015G23KT P6SM BKN250
FM080000 17017KT P6SM BKN250
FM080900 23007KT P6SM FEW250

Example: see airport list